Time;durP1;ratioP1;P1;durP2;ratioP2;P2;SDS_P1;SDS_P2;PMS_P1;PMS_P2;Temp;Humidity;BMP_temperature;BMP_pressure;BME280_temperature;BME280_humidity;BME280_pressure;Samples;Min_cycle;Max_cycle;Signal;HPM_P1;HPM_P2
2022/01/27 00:00:49;;;;;;;63.60;31.97;;;;;;;;;;5056820;28;20213;-80
2022/01/27 00:03:25;;;;;;;71.40;35.10;;;;;;;;;;5060868;28;20199;-80
2022/01/27 00:05:55;;;;;;;70.43;34.33;;;;;;;;;;5063204;28;20678;-80
2022/01/27 00:08:27;;;;;;;67.43;34.53;;;;;;;;;;5051952;28;20203;-80
2022/01/27 00:10:59;;;;;;;74.20;34.60;;;;;;;;;;5058403;28;20668;-80
2022/01/27 00:13:30;;;;;;;70.63;34.37;;;;;;;;;;5060055;28;20196;-81
2022/01/27 00:16:13;;;;;;;65.43;34.53;;;;;;;;;;5054613;28;20677;-80
2022/01/27 00:18:41;;;;;;;71.80;33.63;;;;;;;;;;5052448;28;20199;-80
2022/01/27 00:21:09;;;;;;;68.03;33.50;;;;;;;;;;5070237;28;20669;-80
2022/01/27 00:23:36;;;;;;;67.30;32.50;;;;;;;;;;5079843;28;20197;-80
2022/01/27 00:26:05;;;;;;;68.73;32.23;;;;;;;;;;5094490;28;20239;-80
2022/01/27 00:28:32;;;;;;;66.27;33.03;;;;;;;;;;5094208;28;20231;-80
2022/01/27 00:31:00;;;;;;;66.67;33.30;;;;;;;;;;5093907;28;20225;-80
2022/01/27 00:33:27;;;;;;;67.73;35.80;;;;;;;;;;5104842;28;20283;-80
2022/01/27 00:35:54;;;;;;;70.67;34.63;;;;;;;;;;5114752;28;20233;-80
2022/01/27 00:38:21;;;;;;;69.77;36.00;;;;;;;;;;5113935;28;20230;-81
2022/01/27 00:40:49;;;;;;;71.07;35.40;;;;;;;;;;5114008;28;20635;-81
2022/01/27 00:43:17;;;;;;;68.70;35.03;;;;;;;;;;5097465;28;20262;-81
2022/01/27 00:45:45;;;;;;;73.87;35.37;;;;;;;;;;5092757;28;20706;-80
2022/01/27 00:48:14;;;;;;;64.60;33.30;;;;;;;;;;5093384;28;20205;-80
2022/01/27 00:50:42;;;;;;;69.23;34.93;;;;;;;;;;5104074;28;20196;-80
2022/01/27 00:53:24;;;;;;;71.67;34.43;;;;;;;;;;5113562;27;20285;-80
2022/01/27 00:55:52;;;;;;;66.43;33.10;;;;;;;;;;5130091;27;20198;-80
2022/01/27 00:58:35;;;;;;;71.70;35.27;;;;;;;;;;5119598;27;20193;-80
2022/01/27 01:01:07;;;;;;;66.53;33.47;;;;;;;;;;5117712;27;20221;-80
2022/01/27 01:03:39;;;;;;;71.27;33.77;;;;;;;;;;5133497;27;20259;-80
2022/01/27 01:06:23;;;;;;;70.13;34.50;;;;;;;;;;5131727;27;20692;-80
2022/01/27 01:14:34;;;;;;;70.57;33.57;;;;;;;;;;5030866;28;20211;-80
2022/01/27 01:17:08;;;;;;;65.67;31.97;;;;;;;;;;5030844;28;21130;-80
2022/01/27 01:19:59;;;;;;;66.30;34.03;;;;;;;;;;5046176;28;20267;-80
2022/01/27 01:30:53;;;;;;;70.17;33.57;;;;;;;;;;5030820;28;20197;-81
2022/01/27 01:33:26;;;;;;;66.30;32.93;;;;;;;;;;5034971;28;20198;-80
2022/01/27 01:36:02;;;;;;;68.83;34.47;;;;;;;;;;5035464;28;20202;-80
2022/01/27 01:38:30;;;;;;;67.53;33.43;;;;;;;;;;5041551;28;20208;-80
2022/01/27 01:40:58;;;;;;;64.07;33.17;;;;;;;;;;5046425;28;20235;-81
2022/01/27 01:43:25;;;;;;;63.77;32.90;;;;;;;;;;5040473;28;20212;-80
2022/01/27 01:45:54;;;;;;;64.97;32.43;;;;;;;;;;5030032;28;20290;-80
2022/01/27 01:48:21;;;;;;;63.33;33.43;;;;;;;;;;5046016;28;20283;-80
2022/01/27 01:50:48;;;;;;;65.70;33.73;;;;;;;;;;5066362;28;20223;-80
2022/01/27 01:53:16;;;;;;;62.63;31.53;;;;;;;;;;5129661;27;20277;-80
2022/01/27 01:55:43;;;;;;;65.30;33.10;;;;;;;;;;5113923;27;20286;-81
2022/01/27 01:58:11;;;;;;;66.70;31.93;;;;;;;;;;5112654;27;20229;-81
2022/01/27 02:00:38;;;;;;;65.83;33.00;;;;;;;;;;5112775;28;20261;-80
2022/01/27 02:03:07;;;;;;;67.17;33.87;;;;;;;;;;5120277;27;20284;-80
2022/01/27 02:05:40;;;;;;;68.43;33.63;;;;;;;;;;5124180;27;20661;-80
2022/01/27 02:08:29;;;;;;;68.37;33.27;;;;;;;;;;5112649;28;20210;-81
2022/01/27 02:19:14;;;;;;;65.63;33.87;;;;;;;;;;5118889;27;20225;-80
2022/01/27 02:21:59;;;;;;;69.77;35.17;;;;;;;;;;5112794;28;20309;-80
2022/01/27 02:24:28;;;;;;;68.83;33.77;;;;;;;;;;5112463;28;20752;-81
2022/01/27 02:26:55;;;;;;;67.37;34.53;;;;;;;;;;5112502;28;20207;-80
2022/01/27 02:29:24;;;;;;;66.77;34.40;;;;;;;;;;5112272;28;20233;-80
2022/01/27 02:31:52;;;;;;;69.43;34.10;;;;;;;;;;5117520;27;20271;-80
2022/01/27 02:34:19;;;;;;;70.43;33.63;;;;;;;;;;5132284;27;20284;-80
2022/01/27 02:36:47;;;;;;;66.57;32.43;;;;;;;;;;5131190;27;20300;-80
2022/01/27 02:39:16;;;;;;;61.00;32.00;;;;;;;;;;5118559;27;20272;-80
2022/01/27 02:41:46;;;;;;;64.30;31.57;;;;;;;;;;5131739;27;20799;-80
2022/01/27 02:44:21;;;;;;;62.50;32.07;;;;;;;;;;5128250;27;20233;-80
2022/01/27 02:46:51;;;;;;;58.53;32.20;;;;;;;;;;5125762;27;20239;-80
2022/01/27 02:49:18;;;;;;;62.27;31.97;;;;;;;;;;5131576;27;20232;-81
2022/01/27 02:51:46;;;;;;;61.70;31.47;;;;;;;;;;5128429;27;20272;-81
2022/01/27 02:54:13;;;;;;;61.57;30.80;;;;;;;;;;5129878;27;20290;-80
2022/01/27 02:56:46;;;;;;;63.63;31.83;;;;;;;;;;5132532;27;20200;-80
2022/01/27 02:59:14;;;;;;;56.93;30.77;;;;;;;;;;5129017;27;20193;-80
2022/01/27 03:01:41;;;;;;;60.27;32.30;;;;;;;;;;5111873;28;20262;-80
2022/01/27 03:04:08;;;;;;;62.47;33.37;;;;;;;;;;5124726;28;20608;-80
2022/01/27 03:06:35;;;;;;;67.17;32.53;;;;;;;;;;5122349;28;20222;-80
2022/01/27 03:09:03;;;;;;;67.50;34.07;;;;;;;;;;5111237;28;20641;-80
2022/01/27 03:11:38;;;;;;;65.17;33.20;;;;;;;;;;5114013;28;20190;-80
2022/01/27 03:14:08;;;;;;;66.07;33.63;;;;;;;;;;5118984;28;20238;-80
2022/01/27 03:16:35;;;;;;;67.63;33.30;;;;;;;;;;5119148;28;20201;-80
2022/01/27 03:19:03;;;;;;;64.10;32.83;;;;;;;;;;5114979;28;20225;-80
2022/01/27 03:21:30;;;;;;;62.40;31.77;;;;;;;;;;5125591;28;20312;-80
2022/01/27 03:23:57;;;;;;;62.73;31.63;;;;;;;;;;5131268;28;20201;-80
2022/01/27 03:26:25;;;;;;;54.43;30.53;;;;;;;;;;5113404;28;20277;-80
2022/01/27 03:28:52;;;;;;;58.60;30.83;;;;;;;;;;5121023;28;20229;-80
2022/01/27 03:31:21;;;;;;;62.57;29.73;;;;;;;;;;5117741;28;20261;-80
2022/01/27 03:33:49;;;;;;;58.83;29.97;;;;;;;;;;5119520;28;20575;-80
2022/01/27 03:36:16;;;;;;;59.13;28.93;;;;;;;;;;5115059;28;20289;-80
2022/01/27 03:38:44;;;;;;;55.87;29.73;;;;;;;;;;5128201;28;20237;-80
2022/01/27 03:41:11;;;;;;;65.87;31.77;;;;;;;;;;5123683;28;20309;-80
2022/01/27 03:43:40;;;;;;;64.60;32.60;;;;;;;;;;5125462;27;20589;-80
2022/01/27 03:46:07;;;;;;;60.60;31.07;;;;;;;;;;5128539;28;20281;-80
2022/01/27 03:48:36;;;;;;;58.80;30.33;;;;;;;;;;5120905;28;20733;-80
2022/01/27 03:51:03;;;;;;;58.17;30.40;;;;;;;;;;5119872;28;20282;-80
2022/01/27 03:53:31;;;;;;;58.47;29.87;;;;;;;;;;5107784;28;20270;-80
2022/01/27 03:55:58;;;;;;;59.07;29.23;;;;;;;;;;5110573;28;20221;-80
2022/01/27 03:58:26;;;;;;;55.37;28.53;;;;;;;;;;5111426;28;20204;-80
2022/01/27 04:00:53;;;;;;;58.10;30.83;;;;;;;;;;5115016;28;20302;-80
2022/01/27 04:03:22;;;;;;;53.83;29.57;;;;;;;;;;5114025;28;20225;-80
2022/01/27 04:05:53;;;;;;;56.07;28.33;;;;;;;;;;5115106;28;20678;-81
2022/01/27 04:08:21;;;;;;;51.83;27.63;;;;;;;;;;5114238;28;20289;-80
2022/01/27 04:10:49;;;;;;;52.83;28.07;;;;;;;;;;5114961;28;20190;-81
2022/01/27 04:13:16;;;;;;;52.73;27.37;;;;;;;;;;5111870;28;20206;-80
2022/01/27 04:15:45;;;;;;;53.80;28.30;;;;;;;;;;5095688;28;20245;-80
2022/01/27 04:18:13;;;;;;;60.13;30.87;;;;;;;;;;5103278;28;20661;-80
2022/01/27 04:20:40;;;;;;;54.33;28.27;;;;;;;;;;5101726;28;20305;-80
2022/01/27 04:23:09;;;;;;;55.87;29.10;;;;;;;;;;5096038;28;20289;-80
2022/01/27 04:25:38;;;;;;;59.17;30.50;;;;;;;;;;5112906;28;20250;-80
2022/01/27 04:28:08;;;;;;;56.73;29.50;;;;;;;;;;5106662;28;20191;-80
2022/01/27 04:30:35;;;;;;;54.53;28.33;;;;;;;;;;5100519;28;20618;-80
2022/01/27 04:33:04;;;;;;;56.30;28.80;;;;;;;;;;5110484;28;20236;-80
2022/01/27 04:35:35;;;;;;;56.63;28.90;;;;;;;;;;5114199;28;20204;-80
2022/01/27 04:38:16;;;;;;;53.80;28.23;;;;;;;;;;5114578;28;20194;-80
2022/01/27 04:40:51;;;;;;;56.97;27.93;;;;;;;;;;5113567;28;20217;-80
2022/01/27 04:43:26;;;;;;;54.13;28.40;;;;;;;;;;5104481;28;20641;-81
2022/01/27 04:46:01;;;;;;;55.93;28.33;;;;;;;;;;5073792;28;20619;-81
2022/01/27 04:48:33;;;;;;;57.53;28.50;;;;;;;;;;5094528;28;20246;-80
2022/01/27 04:51:06;;;;;;;54.13;28.43;;;;;;;;;;5094677;28;20209;-80
2022/01/27 04:53:37;;;;;;;53.77;28.77;;;;;;;;;;5107766;27;20232;-80
2022/01/27 04:56:10;;;;;;;55.07;28.40;;;;;;;;;;5124100;27;20258;-80
2022/01/27 04:58:37;;;;;;;53.13;27.53;;;;;;;;;;5123835;27;20209;-80
2022/01/27 05:01:05;;;;;;;57.00;28.77;;;;;;;;;;5134596;27;20328;-80
2022/01/27 05:03:39;;;;;;;55.20;28.37;;;;;;;;;;5119729;27;20759;-80
2022/01/27 05:06:07;;;;;;;53.97;28.00;;;;;;;;;;5116520;27;20197;-80
2022/01/27 05:08:34;;;;;;;53.30;27.23;;;;;;;;;;5113418;28;20898;-80
2022/01/27 05:11:06;;;;;;;56.60;28.20;;;;;;;;;;5126805;27;20220;-80
2022/01/27 05:13:41;;;;;;;52.27;27.23;;;;;;;;;;5123229;27;20190;-81
2022/01/27 05:16:08;;;;;;;54.70;27.90;;;;;;;;;;5122055;27;20273;-80
2022/01/27 05:18:36;;;;;;;54.23;28.00;;;;;;;;;;5124923;27;20288;-80
2022/01/27 05:21:03;;;;;;;54.20;27.27;;;;;;;;;;5129883;27;20233;-80
2022/01/27 05:23:30;;;;;;;54.17;29.63;;;;;;;;;;5133819;27;20208;-80
2022/01/27 05:25:58;;;;;;;54.03;28.63;;;;;;;;;;5134540;27;20632;-80
2022/01/27 05:28:25;;;;;;;54.10;28.43;;;;;;;;;;5132072;27;20231;-80
2022/01/27 05:30:54;;;;;;;50.90;27.63;;;;;;;;;;5128014;27;20273;-80
2022/01/27 05:33:21;;;;;;;53.87;28.97;;;;;;;;;;5118894;27;20232;-80
2022/01/27 05:35:48;;;;;;;57.80;28.60;;;;;;;;;;5113673;27;20236;-80
2022/01/27 05:38:15;;;;;;;55.70;27.30;;;;;;;;;;5116091;27;20628;-80
2022/01/27 05:40:43;;;;;;;57.23;28.87;;;;;;;;;;5133464;27;20314;-80
2022/01/27 05:43:11;;;;;;;55.10;28.60;;;;;;;;;;5121997;27;20309;-80
2022/01/27 05:45:38;;;;;;;54.60;27.57;;;;;;;;;;5108026;27;20289;-80
2022/01/27 05:48:07;;;;;;;52.93;28.43;;;;;;;;;;5112714;28;20288;-80
2022/01/27 05:50:34;;;;;;;56.43;28.47;;;;;;;;;;5118869;27;20572;-80
2022/01/27 05:53:01;;;;;;;53.33;28.23;;;;;;;;;;5122547;27;20277;-81
2022/01/27 05:55:29;;;;;;;58.77;30.93;;;;;;;;;;5093253;28;20733;-81
2022/01/27 05:57:56;;;;;;;55.73;29.60;;;;;;;;;;5092435;28;21003;-81
2022/01/27 06:00:23;;;;;;;56.50;29.43;;;;;;;;;;5098677;28;20233;-81
2022/01/27 06:02:51;;;;;;;57.50;28.47;;;;;;;;;;5094584;28;20730;-81
2022/01/27 06:05:19;;;;;;;55.50;29.67;;;;;;;;;;5094172;28;20226;-80
2022/01/27 06:07:46;;;;;;;55.57;29.40;;;;;;;;;;5098864;28;20237;-80
2022/01/27 06:10:14;;;;;;;60.37;30.73;;;;;;;;;;5104625;28;21005;-84
2022/01/27 06:12:48;;;;;;;55.60;28.30;;;;;;;;;;5096758;28;20577;-84
2022/01/27 06:15:16;;;;;;;55.17;28.67;;;;;;;;;;5092560;28;20233;-83
2022/01/27 06:17:43;;;;;;;60.90;30.20;;;;;;;;;;5112126;28;20615;-84
2022/01/27 06:20:11;;;;;;;60.23;29.50;;;;;;;;;;5111030;28;20254;-84
2022/01/27 06:22:39;;;;;;;58.90;29.47;;;;;;;;;;5102718;28;20310;-84
2022/01/27 06:25:07;;;;;;;57.77;30.03;;;;;;;;;;5091961;28;20289;-81
2022/01/27 06:27:34;;;;;;;63.07;31.10;;;;;;;;;;5103382;28;20293;-83
2022/01/27 06:30:04;;;;;;;59.97;30.80;;;;;;;;;;5092814;28;20212;-81
2022/01/27 06:32:32;;;;;;;64.60;31.60;;;;;;;;;;5083085;28;20260;-80
2022/01/27 06:34:59;;;;;;;59.00;30.37;;;;;;;;;;5102858;28;20288;-84
2022/01/27 06:37:26;;;;;;;58.63;30.83;;;;;;;;;;5100404;28;20628;-84
2022/01/27 06:39:55;;;;;;;59.73;30.30;;;;;;;;;;5098106;28;20228;-84
2022/01/27 06:42:22;;;;;;;62.83;32.07;;;;;;;;;;5100603;28;20250;-85
2022/01/27 06:44:49;;;;;;;63.83;31.00;;;;;;;;;;5101336;28;20293;-88
2022/01/27 06:47:16;;;;;;;60.30;30.17;;;;;;;;;;5096367;28;20203;-82
2022/01/27 06:49:44;;;;;;;56.53;30.70;;;;;;;;;;5099909;28;20274;-82
2022/01/27 06:52:11;;;;;;;57.17;29.97;;;;;;;;;;5101658;28;20237;-83
2022/01/27 06:54:38;;;;;;;62.40;31.67;;;;;;;;;;5095253;28;20230;-82
2022/01/27 06:57:07;;;;;;;56.03;29.90;;;;;;;;;;5098128;28;20676;-82
2022/01/27 06:59:35;;;;;;;58.47;29.43;;;;;;;;;;5095490;28;20701;-81
2022/01/27 07:02:03;;;;;;;59.80;29.93;;;;;;;;;;5096240;28;20217;-82
2022/01/27 07:04:30;;;;;;;57.90;29.93;;;;;;;;;;5106806;28;20206;-81
2022/01/27 07:06:57;;;;;;;59.90;29.87;;;;;;;;;;5099500;28;20228;-82
2022/01/27 07:09:24;;;;;;;58.80;29.97;;;;;;;;;;5099897;28;20271;-82
2022/01/27 07:11:52;;;;;;;61.23;30.50;;;;;;;;;;5103194;28;20277;-82
2022/01/27 07:14:20;;;;;;;57.37;30.17;;;;;;;;;;5098296;28;20207;-82
2022/01/27 07:16:48;;;;;;;56.70;29.73;;;;;;;;;;5103074;28;20201;-83
2022/01/27 07:19:15;;;;;;;58.87;31.60;;;;;;;;;;5095128;28;20194;-83
2022/01/27 07:21:42;;;;;;;58.73;31.13;;;;;;;;;;5091914;28;20356;-83
2022/01/27 07:24:09;;;;;;;60.43;31.60;;;;;;;;;;5096031;28;20243;-84
2022/01/27 07:26:37;;;;;;;58.03;29.00;;;;;;;;;;5100641;28;20277;-83
2022/01/27 07:29:04;;;;;;;58.13;29.33;;;;;;;;;;5098795;28;20967;-83
2022/01/27 07:31:34;;;;;;;56.53;29.27;;;;;;;;;;5101013;28;20219;-83
2022/01/27 07:34:01;;;;;;;56.30;29.47;;;;;;;;;;5099668;28;20234;-83
2022/01/27 07:36:31;;;;;;;61.47;29.93;;;;;;;;;;5109183;28;20289;-83
2022/01/27 07:38:58;;;;;;;58.40;30.30;;;;;;;;;;5106134;28;20323;-83
2022/01/27 07:41:25;;;;;;;59.57;29.70;;;;;;;;;;5100293;28;20221;-83
2022/01/27 07:43:52;;;;;;;59.93;28.97;;;;;;;;;;5106832;28;20241;-83
2022/01/27 07:46:20;;;;;;;51.93;29.00;;;;;;;;;;5100904;28;20194;-83
2022/01/27 07:48:48;;;;;;;60.67;30.17;;;;;;;;;;5105644;28;20228;-83
2022/01/27 07:51:17;;;;;;;53.40;27.90;;;;;;;;;;5105404;28;20225;-82
2022/01/27 07:53:44;;;;;;;54.73;28.57;;;;;;;;;;5113833;27;20268;-83
2022/01/27 07:56:11;;;;;;;56.40;29.73;;;;;;;;;;5114064;27;20731;-83
2022/01/27 07:58:40;;;;;;;57.50;29.27;;;;;;;;;;5116025;27;20278;-83
2022/01/27 08:01:09;;;;;;;56.00;28.40;;;;;;;;;;5118075;27;20233;-83
2022/01/27 08:03:36;;;;;;;59.17;28.93;;;;;;;;;;5115639;27;20209;-83
2022/01/27 08:06:05;;;;;;;57.50;28.03;;;;;;;;;;5124671;27;20289;-83
2022/01/27 08:08:33;;;;;;;52.63;28.03;;;;;;;;;;5127085;27;20205;-82
2022/01/27 08:11:00;;;;;;;54.73;28.97;;;;;;;;;;5111506;27;20637;-81
2022/01/27 08:13:28;;;;;;;56.70;29.47;;;;;;;;;;5114578;27;20254;-82
2022/01/27 08:15:55;;;;;;;56.43;28.83;;;;;;;;;;5124142;27;20635;-82
2022/01/27 08:18:23;;;;;;;59.33;29.37;;;;;;;;;;5120379;27;20700;-82
2022/01/27 08:20:50;;;;;;;61.03;29.07;;;;;;;;;;5119285;27;20249;-82
2022/01/27 08:23:20;;;;;;;54.37;29.03;;;;;;;;;;5115134;27;20254;-82
2022/01/27 08:25:53;;;;;;;53.87;29.37;;;;;;;;;;5120715;27;20289;-82
2022/01/27 08:28:31;;;;;;;56.03;28.60;;;;;;;;;;5119823;27;20968;-82
2022/01/27 08:30:59;;;;;;;50.47;27.47;;;;;;;;;;5118516;27;20207;-82
2022/01/27 08:33:29;;;;;;;51.77;27.63;;;;;;;;;;5121742;27;20198;-82
2022/01/27 08:35:58;;;;;;;55.43;27.43;;;;;;;;;;5121742;27;20198;-82
2022/01/27 08:38:27;;;;;;;55.87;27.63;;;;;;;;;;5116060;27;20229;-81
2022/01/27 08:40:54;;;;;;;57.40;28.37;;;;;;;;;;5124515;27;20284;-82
2022/01/27 08:43:21;;;;;;;55.97;28.10;;;;;;;;;;5118588;27;20363;-82
2022/01/27 08:45:50;;;;;;;57.43;27.93;;;;;;;;;;5125755;27;20193;-82
2022/01/27 08:48:20;;;;;;;53.07;27.73;;;;;;;;;;5122234;27;20300;-82
2022/01/27 08:50:53;;;;;;;54.93;27.37;;;;;;;;;;5123675;27;20197;-82
2022/01/27 08:53:21;;;;;;;52.10;25.97;;;;;;;;;;5131590;27;21615;-82
2022/01/27 08:55:50;;;;;;;54.20;27.50;;;;;;;;;;5114806;27;20198;-85
2022/01/27 08:58:17;;;;;;;46.77;26.00;;;;;;;;;;5119844;27;20251;-88
2022/01/27 09:00:44;;;;;;;50.77;27.43;;;;;;;;;;5121106;27;20624;-86
2022/01/27 09:03:11;;;;;;;51.43;27.17;;;;;;;;;;5125588;27;20221;-80
2022/01/27 09:05:40;;;;;;;47.60;25.63;;;;;;;;;;5119670;27;20633;-81
2022/01/27 09:08:08;;;;;;;51.33;26.40;;;;;;;;;;5121353;27;20584;-79
2022/01/27 09:10:35;;;;;;;46.80;26.00;;;;;;;;;;5113612;27;20817;-80
2022/01/27 09:13:04;;;;;;;47.73;25.07;;;;;;;;;;5113661;27;20734;-80
2022/01/27 09:15:32;;;;;;;49.00;26.83;;;;;;;;;;5112573;27;20280;-80
2022/01/27 09:18:00;;;;;;;48.90;26.00;;;;;;;;;;5113611;27;20235;-80
2022/01/27 09:20:27;;;;;;;46.23;25.37;;;;;;;;;;5113214;27;20206;-80
2022/01/27 09:22:57;;;;;;;48.70;25.73;;;;;;;;;;5112662;27;20361;-80
2022/01/27 09:25:30;;;;;;;47.13;24.90;;;;;;;;;;5115228;27;20696;-80
2022/01/27 09:27:58;;;;;;;44.83;24.90;;;;;;;;;;5106759;27;20669;-80
2022/01/27 09:30:27;;;;;;;46.90;25.93;;;;;;;;;;5120851;27;20199;-80
2022/01/27 09:32:55;;;;;;;45.83;25.33;;;;;;;;;;5117975;27;20243;-80
2022/01/27 09:35:23;;;;;;;42.60;25.20;;;;;;;;;;5121564;27;20269;-79
2022/01/27 09:37:50;;;;;;;45.03;24.93;;;;;;;;;;5114387;27;20691;-80
2022/01/27 09:40:18;;;;;;;46.27;25.33;;;;;;;;;;5117355;27;20213;-80
2022/01/27 09:42:50;;;;;;;47.30;26.30;;;;;;;;;;5119604;27;20231;-80
2022/01/27 09:45:17;;;;;;;45.17;24.07;;;;;;;;;;5114910;27;20212;-81
2022/01/27 09:47:54;;;;;;;46.93;25.43;;;;;;;;;;5122341;27;20203;-83
2022/01/27 09:50:30;;;;;;;47.63;25.50;;;;;;;;;;5112323;27;20207;-81
2022/01/27 09:52:57;;;;;;;49.73;25.73;;;;;;;;;;5116805;27;20193;-80
2022/01/27 09:55:25;;;;;;;46.23;25.13;;;;;;;;;;5108624;27;20764;-82
2022/01/27 09:57:54;;;;;;;45.70;26.20;;;;;;;;;;5118687;27;20340;-81
2022/01/27 10:00:21;;;;;;;47.87;26.53;;;;;;;;;;5112595;27;20234;-80
2022/01/27 10:03:07;;;;;;;47.80;25.70;;;;;;;;;;5116693;27;20224;-81
2022/01/27 10:05:35;;;;;;;45.30;24.70;;;;;;;;;;5118249;27;20703;-79
2022/01/27 10:08:08;;;;;;;47.87;25.77;;;;;;;;;;5110972;27;20219;-80
2022/01/27 10:10:36;;;;;;;45.57;25.73;;;;;;;;;;5110888;27;20687;-81
2022/01/27 10:13:07;;;;;;;43.97;25.17;;;;;;;;;;5115968;27;20253;-80
2022/01/27 10:15:37;;;;;;;43.67;24.93;;;;;;;;;;5117793;27;20205;-84
2022/01/27 10:18:07;;;;;;;46.70;25.10;;;;;;;;;;5113884;27;20208;-87
2022/01/27 10:20:35;;;;;;;51.73;25.47;;;;;;;;;;5111229;27;20195;-81
2022/01/27 10:23:09;;;;;;;42.77;25.00;;;;;;;;;;5116968;27;20596;-81
2022/01/27 10:25:46;;;;;;;41.83;24.33;;;;;;;;;;5114375;27;20211;-82
2022/01/27 10:28:24;;;;;;;44.30;25.20;;;;;;;;;;5114239;27;20207;-82
2022/01/27 10:31:00;;;;;;;46.40;25.40;;;;;;;;;;5120261;27;20200;-81
2022/01/27 10:33:28;;;;;;;46.57;25.70;;;;;;;;;;5110383;27;20261;-81
2022/01/27 10:35:55;;;;;;;45.50;24.90;;;;;;;;;;5107965;27;20238;-80
2022/01/27 10:38:23;;;;;;;47.47;24.20;;;;;;;;;;5102568;27;20644;-80
2022/01/27 10:40:50;;;;;;;44.97;24.90;;;;;;;;;;5119111;27;20222;-80
2022/01/27 10:43:19;;;;;;;41.70;24.53;;;;;;;;;;5124664;27;20361;-79
2022/01/27 10:46:00;;;;;;;43.40;24.07;;;;;;;;;;5127457;27;20226;-79
2022/01/27 10:48:32;;;;;;;43.60;23.43;;;;;;;;;;5111511;27;20200;-80
2022/01/27 10:51:04;;;;;;;44.70;24.93;;;;;;;;;;5119746;27;20197;-79
2022/01/27 10:53:53;;;;;;;49.63;26.13;;;;;;;;;;5115566;27;20324;-79
2022/01/27 10:56:22;;;;;;;46.57;25.47;;;;;;;;;;5090285;28;20206;-79
2022/01/27 10:58:49;;;;;;;41.27;24.53;;;;;;;;;;5089644;28;20289;-79
2022/01/27 11:01:23;;;;;;;45.60;24.77;;;;;;;;;;5090740;28;20237;-80
2022/01/27 11:03:55;;;;;;;45.07;24.03;;;;;;;;;;5105810;28;20245;-84
2022/01/27 11:06:25;;;;;;;45.37;25.77;;;;;;;;;;5103816;28;20201;-85
2022/01/27 11:08:54;;;;;;;42.73;24.03;;;;;;;;;;5101391;28;20584;-84
2022/01/27 11:11:25;;;;;;;41.17;24.13;;;;;;;;;;5105166;28;20209;-84
2022/01/27 11:13:54;;;;;;;43.83;23.97;;;;;;;;;;5097695;28;20261;-85
2022/01/27 11:16:27;;;;;;;43.70;25.03;;;;;;;;;;5104113;28;20270;-84
2022/01/27 11:19:11;;;;;;;41.17;24.20;;;;;;;;;;5100122;28;20219;-84
2022/01/27 11:21:40;;;;;;;41.00;24.47;;;;;;;;;;5094188;28;20237;-84
2022/01/27 11:24:16;;;;;;;46.63;25.27;;;;;;;;;;5101541;28;20228;-84
2022/01/27 11:26:44;;;;;;;44.77;25.53;;;;;;;;;;5097685;28;20668;-84
2022/01/27 11:29:12;;;;;;;47.17;26.67;;;;;;;;;;5103029;28;20682;-84
2022/01/27 11:31:44;;;;;;;45.83;25.27;;;;;;;;;;5095161;28;20203;-84
2022/01/27 11:34:13;;;;;;;43.77;25.53;;;;;;;;;;5092092;28;20205;-84
2022/01/27 11:37:00;;;;;;;44.37;25.37;;;;;;;;;;5090807;28;20677;-83
2022/01/27 11:39:47;;;;;;;40.70;24.23;;;;;;;;;;5097411;28;20234;-83
2022/01/27 11:42:14;;;;;;;44.00;25.37;;;;;;;;;;5101967;28;20255;-83
2022/01/27 11:44:45;;;;;;;45.87;24.97;;;;;;;;;;5099322;28;20229;-83
2022/01/27 11:47:22;;;;;;;42.73;25.60;;;;;;;;;;5108446;28;20651;-84
2022/01/27 11:49:57;;;;;;;44.07;26.33;;;;;;;;;;5099997;28;20219;-85
2022/01/27 11:52:27;;;;;;;43.67;26.63;;;;;;;;;;5105645;28;20201;-85
2022/01/27 11:55:02;;;;;;;43.27;27.37;;;;;;;;;;5118358;28;20229;-85
2022/01/27 11:57:42;;;;;;;44.07;25.93;;;;;;;;;;5121905;28;20394;-85
2022/01/27 12:00:10;;;;;;;43.13;25.33;;;;;;;;;;5124515;28;20767;-84
2022/01/27 12:02:57;;;;;;;47.73;26.37;;;;;;;;;;5121365;28;20284;-84
2022/01/27 12:05:25;;;;;;;41.33;26.23;;;;;;;;;;5120405;28;20202;-85
2022/01/27 12:08:13;;;;;;;45.53;27.10;;;;;;;;;;5125344;28;20339;-85
2022/01/27 12:10:41;;;;;;;45.27;26.37;;;;;;;;;;5117124;28;20250;-86
2022/01/27 12:13:23;;;;;;;44.10;26.57;;;;;;;;;;5130267;28;20257;-86
2022/01/27 12:16:09;;;;;;;44.10;26.57;;;;;;;;;;5107812;28;20614;-84
2022/01/27 12:18:36;;;;;;;40.93;24.43;;;;;;;;;;5123224;27;20572;-84
2022/01/27 12:21:19;;;;;;;39.57;24.40;;;;;;;;;;5131948;27;20668;-88
2022/01/27 12:24:01;;;;;;;42.17;24.07;;;;;;;;;;5116972;27;20249;-85
2022/01/27 12:26:43;;;;;;;37.53;22.53;;;;;;;;;;5120026;27;20635;-89
2022/01/27 12:29:12;;;;;;;40.87;23.87;;;;;;;;;;5113049;27;20223;-84
2022/01/27 12:31:40;;;;;;;44.00;24.60;;;;;;;;;;5125103;27;20191;-85
2022/01/27 12:34:07;;;;;;;39.43;23.47;;;;;;;;;;5125557;27;21006;-85
2022/01/27 12:36:34;;;;;;;40.47;23.77;;;;;;;;;;5128957;27;20295;-86
2022/01/27 12:39:02;;;;;;;42.97;23.90;;;;;;;;;;5115181;27;20229;-86
2022/01/27 12:41:39;;;;;;;42.60;24.77;;;;;;;;;;5121136;27;20648;-85
2022/01/27 12:44:12;;;;;;;40.37;24.47;;;;;;;;;;5123176;27;20252;-86
2022/01/27 12:46:39;;;;;;;39.87;24.23;;;;;;;;;;5122589;27;20193;-85
2022/01/27 12:49:08;;;;;;;37.33;24.27;;;;;;;;;;5120093;27;20208;-84
2022/01/27 12:51:55;;;;;;;40.53;24.37;;;;;;;;;;5122516;27;20196;-86
2022/01/27 12:54:27;;;;;;;39.30;22.63;;;;;;;;;;5107641;27;20221;-87
2022/01/27 12:56:54;;;;;;;34.87;22.13;;;;;;;;;;5103102;28;20795;-86
2022/01/27 12:59:23;;;;;;;40.63;24.13;;;;;;;;;;5095459;28;20671;-86
2022/01/27 13:01:57;;;;;;;39.33;23.30;;;;;;;;;;5103177;28;20750;-86
2022/01/27 13:04:25;;;;;;;37.77;23.17;;;;;;;;;;5095629;28;20243;-87
2022/01/27 13:06:56;;;;;;;38.97;23.90;;;;;;;;;;5097057;28;20270;-86
2022/01/27 13:09:23;;;;;;;41.20;24.40;;;;;;;;;;5096647;28;20232;-85
2022/01/27 13:11:53;;;;;;;38.70;23.60;;;;;;;;;;5097121;28;20644;-87
2022/01/27 13:14:20;;;;;;;41.00;24.27;;;;;;;;;;5105836;28;20192;-86
2022/01/27 13:16:54;;;;;;;38.37;23.17;;;;;;;;;;5096014;28;20203;-86
2022/01/27 13:19:26;;;;;;;40.00;25.23;;;;;;;;;;5108121;28;20662;-86
2022/01/27 13:22:03;;;;;;;39.87;23.77;;;;;;;;;;5097960;28;20205;-85
2022/01/27 13:24:33;;;;;;;39.97;25.00;;;;;;;;;;5099589;28;20235;-86
2022/01/27 13:27:08;;;;;;;41.20;23.27;;;;;;;;;;5102597;28;20230;-86
2022/01/27 13:29:42;;;;;;;41.00;24.70;;;;;;;;;;5093083;28;20209;-86
2022/01/27 13:32:11;;;;;;;39.10;24.47;;;;;;;;;;5096669;28;20255;-86
2022/01/27 13:34:42;;;;;;;40.77;24.70;;;;;;;;;;5108149;28;20225;-87
2022/01/27 13:37:09;;;;;;;41.43;24.83;;;;;;;;;;5103872;28;20271;-82
2022/01/27 13:42:31;;;;;;;44.03;25.03;;;;;;;;;;5099171;28;20223;-82
2022/01/27 13:45:00;;;;;;;41.13;24.60;;;;;;;;;;5095377;28;20278;-82
2022/01/27 13:47:30;;;;;;;40.87;24.83;;;;;;;;;;5099188;28;20288;-82
2022/01/27 13:50:11;;;;;;;39.60;24.87;;;;;;;;;;5096563;28;20669;-82
2022/01/27 13:52:42;;;;;;;44.87;25.57;;;;;;;;;;5102045;28;20224;-84
2022/01/27 13:55:10;;;;;;;40.77;24.33;;;;;;;;;;5119113;27;20235;-83
2022/01/27 13:57:47;;;;;;;40.30;24.83;;;;;;;;;;5123656;27;20227;-83
2022/01/27 14:00:17;;;;;;;43.43;25.17;;;;;;;;;;5121635;27;20290;-82
2022/01/27 14:02:48;;;;;;;40.30;24.73;;;;;;;;;;5122404;27;20212;-82
2022/01/27 14:05:16;;;;;;;51.00;30.53;;;;;;;;;;5122357;27;20225;-82
2022/01/27 14:07:44;;;;;;;46.53;27.83;;;;;;;;;;5127578;27;20246;-82
2022/01/27 14:10:15;;;;;;;46.03;28.73;;;;;;;;;;5115722;27;20292;-82
2022/01/27 14:12:46;;;;;;;45.90;28.93;;;;;;;;;;5122000;27;20223;-83
2022/01/27 14:15:27;;;;;;;42.17;26.60;;;;;;;;;;5125132;27;20189;-82
2022/01/27 14:17:58;;;;;;;38.77;23.47;;;;;;;;;;5122546;27;20257;-83
2022/01/27 14:20:26;;;;;;;39.73;25.20;;;;;;;;;;5119293;27;20759;-82
2022/01/27 14:23:03;;;;;;;38.40;24.27;;;;;;;;;;5129736;27;20244;-82
2022/01/27 14:25:37;;;;;;;39.70;24.53;;;;;;;;;;5118491;27;20644;-82
2022/01/27 14:28:10;;;;;;;40.83;24.87;;;;;;;;;;5123914;27;20189;-82
2022/01/27 14:30:37;;;;;;;42.73;25.80;;;;;;;;;;5123236;27;20233;-82
2022/01/27 14:33:07;;;;;;;39.53;25.37;;;;;;;;;;5114357;27;20252;-81
2022/01/27 14:35:34;;;;;;;42.20;25.80;;;;;;;;;;5127258;27;20240;-83
2022/01/27 14:38:01;;;;;;;41.57;25.43;;;;;;;;;;5116013;27;20287;-83
2022/01/27 14:40:28;;;;;;;38.13;23.80;;;;;;;;;;5121260;27;20193;-82
2022/01/27 14:42:59;;;;;;;40.07;24.73;;;;;;;;;;5114999;27;20224;-82
2022/01/27 14:45:26;;;;;;;39.10;24.20;;;;;;;;;;5109117;27;20308;-82
2022/01/27 14:47:59;;;;;;;39.63;24.73;;;;;;;;;;5122641;27;20204;-82
2022/01/27 14:50:28;;;;;;;42.23;23.93;;;;;;;;;;5105990;27;20213;-82
2022/01/27 14:52:56;;;;;;;38.73;24.73;;;;;;;;;;5125035;27;20222;-83
2022/01/27 14:55:24;;;;;;;38.47;24.77;;;;;;;;;;5114312;27;20864;-83
2022/01/27 14:57:51;;;;;;;41.43;24.90;;;;;;;;;;5119384;27;20193;-83